Aguilar, Colorado
Current Conditions -  °F | °C
As of 3:54 PM on Saturday 25 Oct 2014 (Local Time) from KTAD Reporting Station
Clear Clear  
Wind Chill: 80°   Ceiling: Unl
Heat Index: 80°   Visibility: 10mi
Dew Point: 25°   Wind: 10mph
Humidity: 13%   Direction: 100°E
Pressure: 30.12"   Gusts: NA
Location:  37.4°N, 104.65°W
Report Text: KTAD 252154Z AUTO 10009KT 10SM CLR 27/M04 A3012 RMK AO2 SLP128 T02671039
Loading
Personal Weather Stations






























Interactive Weather Map New forecast layout! Learn more

10-Day Weather Forecast

Advertisements
Track Severe Weather on mobile